Flight Track Log - Related Links

Times and Time Zones

All times are in EDT time to prevent confusion due to time zone crossing. See the ASQ6150 flight status page for this flight to view local times or setup timezone preferences in your user account.

Time Position Orientation Groundspeed Altitude Reporting Facility
EDT Latitude Longitude Course Direction KTS MPH feet Rate Location/Type
Fri 06:47:55 PM 38.3492 -81.6158 90° East 171 197 2,900  Level Indianapolis Center
Fri 06:48:57 PM 38.3147 -81.5733 136° Southeast 211 243 6,000 2,878 Climbing Indianapolis Center
Fri 06:49:58 PM 38.3419 -81.4767 70° East 248 285 8,800 2,098 Climbing Indianapolis Center
Fri 06:51:00 PM 38.3369 -81.3764 94° East 288 331 10,300 1,742 Climbing Indianapolis Center
Fri 06:52:00 PM 38.3167 -81.2223 90° East  Level FlightAware Approximate
Fri 06:52:02 PM 38.3339 -81.2578 92° East 331 381 12,400  Level Indianapolis Center
Fri 06:53:00 PM 38.3168 -81.1019 90° East  Level FlightAware Approximate
Fri 06:53:04 PM 38.3286 -81.1333 93° East 350 403 14,400  Level Indianapolis Center
Fri 06:54:06 PM 38.3239 -81.0044 93° East 363 418 16,400 1,906 Climbing Indianapolis Center
Fri 06:54:29 PM 38.3203 -80.9564 95° East 368 423 17,100 1,663 Climbing Washington Center
Fri 06:55:29 PM 38.3158 -80.8211 92° East 361 415 18,700 1,800 Climbing Washington Center
Fri 06:56:29 PM 38.3119 -80.6700 92° East 379 436 20,700 1,140 Climbing Washington Center
Fri 06:57:30 PM 38.3056 -80.5214 93° East 398 458 21,000 148 Climbing Washington Center
Fri 06:58:31 PM 38.3225 -80.3636 82° East 422 486 21,000  Level Washington Center
Fri 06:59:31 PM 38.3578 -80.2044 74° East 442 509 21,000  Level Washington Center
Fri 07:00:30 PM 38.3881 -80.0633 75° East 451 519 21,000  Level Washington Center
Fri 07:01:31 PM 38.4231 -79.9089 74° East 451 519 21,000  Level Washington Center
Fri 07:02:31 PM 38.4578 -79.7492 74° East 451 519 21,000  Level Washington Center
Fri 07:03:29 PM 38.4903 -79.5919 75° East 451 519 21,000  Level Washington Center
Fri 07:04:30 PM 38.5294 -79.4161 74° East 451 519 21,000 -246 Level Washington Center
Fri 07:05:31 PM 38.5553 -79.2581 78° East 456 525 20,500 -756 Descending Washington Center
Fri 07:06:29 PM 38.5783 -79.1106 79° East 443 510 19,500 -857 Descending Washington Center
Fri 07:07:30 PM 38.6011 -78.9708 78° East 423 487 18,800 -689 Descending Washington Center
Fri 07:08:31 PM 38.6281 -78.8258 77° East 408 470 18,100 -1,388 Descending Washington Center
Fri 07:09:31 PM 38.6586 -78.6969 73° East 403 464 16,000 -2,237 Descending Washington Center
Fri 07:10:29 PM 38.6867 -78.5706 74° East 379 436 13,700 -2,218 Descending Washington Center
Fri 07:11:30 PM 38.7125 -78.4544 74° East 358 412 11,600 -1,328 Descending Washington Center
Fri 07:12:31 PM 38.7442 -78.3492 69° East 332 382 11,000 -756 Descending Washington Center
Fri 07:13:29 PM 38.7217 -78.2419 105° East 296 341 10,100 -1,059 Descending Washington Center
Fri 07:14:30 PM 38.6947 -78.1372 108° East 296 341 8,900 -1,180 Descending Washington Center
Fri 07:15:31 PM 38.6675 -78.0406 110° East 296 341 7,700 -1,140 Descending Washington Center
Fri 07:16:31 PM 38.6653 -77.9419 92° East 285 328 6,600 -1,068 Descending Washington Center
Fri 07:17:29 PM 38.6650 -77.8489 90° East 273 314 5,600 -807 Descending Washington Center
Fri 07:18:30 PM 38.6644 -77.7614 90° East 262 302 5,000 -295 Descending Washington Center
Fri 07:19:31 PM 38.6658 -77.6817 89° East 237 273 5,000  Level Washington Center
Fri 07:20:40 PM 38.6667 -77.5833 89° East 237 273 5,000  Level Potomac TRACON
Fri 07:21:46 PM 38.6833 -77.4833 78° East 236 272 5,000 -248 Level Potomac TRACON
Fri 07:22:41 PM 38.7333 -77.4667 15° North 226 260 4,500 -939 Descending Potomac TRACON
Fri 07:23:41 PM 38.8000 -77.4667 360° North 211 243 3,200 -1,300 Descending Potomac TRACON

Login

Don't have an account? Register now (free) for customized features, flight alerts, and more!